Flight Track Log - Related Links

Times and Time Zones

All times are in EDT time to prevent confusion due to time zone crossing. See the RPA3392 flight status page for this flight to view local times or setup timezone preferences in your user account.

Time Position Orientation Groundspeed Altitude Reporting Facility
EDT Latitude Longitude Course Direction KTS MPH feet Rate Location/Type
Wed 10:34:06 PM 38.8000 -77.0333 83° East 164 189 2,100  Level Potomac TRACON
Wed 10:35:01 PM 38.7500 -77.0333 180° South 260 299 4,100 2,926 Climbing Potomac TRACON
Wed 10:36:00 PM 39.0214 -76.5524 67° East  Level FlightAware Approximate
Wed 10:36:07 PM 38.7333 -76.9500 104° East 281 323 8,000  Level Potomac TRACON
Wed 10:37:00 PM 39.0678 -76.4307 61° Northeast  Level FlightAware Approximate
Wed 10:37:50 PM 38.8642 -76.9406 North 300 345 12,900  Level Washington Center
Wed 10:38:00 PM 39.1167 -76.3113 90° East  Level FlightAware Approximate
Wed 10:38:51 PM 38.9536 -76.9450 358° North 320 368 14,100  Level Washington Center
Wed 10:39:00 PM 39.1524 -76.1926 83° East  Level FlightAware Approximate
Wed 10:39:51 PM 39.0292 -76.8983 26° Northeast 297 342 15,600  Level Washington Center
Wed 10:40:51 PM 39.0492 -76.7783 78° East 278 320 18,600 1,686 Climbing Washington Center
Wed 10:41:52 PM 39.0442 -76.6661 93° East 278 320 19,000 446 Climbing Washington Center
Wed 10:42:52 PM 39.0306 -76.5508 99° East 291 335 19,500 706 Climbing Washington Center
Wed 10:43:51 PM 39.0564 -76.4256 75° East 318 366 20,400 1,462 Climbing Washington Center
Wed 10:44:51 PM 39.0906 -76.2897 72° East 360 414 22,400 1,289 Climbing Washington Center
Wed 10:45:52 PM 39.1267 -76.1508 71° East 383 441 23,000 305 Climbing Washington Center
Wed 10:46:49 PM 39.1628 -76.0119 71° East 400 460 23,000  Level Washington Center
Wed 10:47:50 PM 39.2006 -75.8756 70° East 400 460 23,000  Level Washington Center
Wed 10:48:50 PM 39.2758 -75.7739 46° Northeast 389 448 23,000  Level Washington Center
Wed 10:49:49 PM 39.3550 -75.6722 45° Northeast 389 448 23,000  Level Washington Center
Wed 10:50:51 PM 39.4344 -75.5672 46° Northeast 389 448 23,000  Level Washington Center
Wed 10:51:51 PM 39.5133 -75.4650 45° Northeast 394 453 23,000  Level Washington Center
Wed 10:52:51 PM 39.5903 -75.3653 45° Northeast 394 453 23,000  Level Washington Center
Wed 10:53:52 PM 39.6694 -75.2600 46° Northeast 394 453 23,000 62 Level Washington Center
Wed 10:54:28 PM 39.7158 -75.1969 46° Northeast 398 458 23,100 619 Climbing New York Center
Wed 10:55:29 PM 39.7886 -75.0881 49° Northeast 403 464 24,000 450 Climbing New York Center
Wed 10:56:28 PM 39.8656 -74.9792 47° Northeast 398 458 24,000  Level New York Center
Wed 10:57:30 PM 39.9400 -74.8753 47° Northeast 398 458 24,000  Level New York Center
Wed 10:58:30 PM 40.0125 -74.7683 48° Northeast 398 458 24,000  Level New York Center
Wed 10:59:28 PM 40.0847 -74.6614 49° Northeast 398 458 24,000  Level New York Center
Wed 11:00:29 PM 40.1614 -74.5542 47° Northeast 398 458 24,000  Level New York Center
Wed 11:01:29 PM 40.2331 -74.4631 44° Northeast 403 464 24,000  Level New York Center
Wed 11:02:30 PM 40.3169 -74.3722 40° Northeast 397 457 24,000  Level New York Center
Wed 11:04:50 PM 40.5158 -74.1572 39° Northeast 404 465 24,000  Level Boston Center
Wed 11:05:50 PM 40.6006 -74.0636 40° Northeast 399 459 24,000  Level Boston Center
Wed 11:06:50 PM 40.6872 -73.9811 36° Northeast 389 448 24,000  Level Boston Center
Wed 11:07:50 PM 40.7697 -73.8869 41° Northeast 389 448 24,000  Level Boston Center
Wed 11:08:50 PM 40.8522 -73.7928 41° Northeast 389 448 24,000  Level Boston Center
Wed 11:09:50 PM 40.9347 -73.6928 42° Northeast 389 448 24,000  Level Boston Center
Wed 11:10:50 PM 41.0192 -73.5872 43° Northeast 389 448 24,000 -150 Level Boston Center
Wed 11:11:50 PM 41.0844 -73.5086 42° Northeast 384 442 23,700 -950 Descending Boston Center
Wed 11:12:50 PM 41.2078 -73.4747 12° North 369 425 22,100 -1,550 Descending Boston Center
Wed 11:13:50 PM 41.3139 -73.5014 349° North 364 419 20,600 -1,050 Descending Boston Center
Wed 11:14:50 PM 41.4178 -73.5225 351° North 364 419 20,000 -900 Descending Boston Center
Wed 11:15:50 PM 41.5197 -73.5464 350° North 369 425 18,800 -1,150 Descending Boston Center
Wed 11:16:50 PM 41.6217 -73.5647 352° North 369 425 17,700 -1,250 Descending Boston Center
Wed 11:17:50 PM 41.7194 -73.5886 350° North 369 425 16,300 -1,550 Descending Boston Center
Wed 11:18:50 PM 41.8169 -73.6072 352° North 364 419 14,600 -1,550 Descending Boston Center
Wed 11:19:50 PM 41.9147 -73.6286 351° North 359 413 13,200 -1,500 Descending Boston Center
Wed 11:20:06 PM 41.9397 -73.6375 345° North 350 403 12,700 -1,700 Descending Boston Center
Wed 11:20:50 PM 42.0083 -73.6500 352° North 343 395 11,500 -981 Descending Boston Center
Wed 11:21:50 PM 42.0936 -73.6683 351° North 343 395 11,000 -250 Descending Boston Center
Wed 11:22:50 PM 42.1850 -73.6869 351° North 338 389 11,000 -250 Level Boston Center
Wed 11:23:50 PM 42.2767 -73.7000 354° North 333 383 10,500 -1,039 Descending Boston Center
Wed 11:24:57 PM 42.3706 -73.6933 North 264 304 8,800 -1,550 Descending Boston Center
Wed 11:25:50 PM 42.4289 -73.6917 North 268 308 7,400 -1,752 Descending Boston Center
Wed 11:26:50 PM 42.5103 -73.6906 North 268 308 5,500 -1,700 Descending Boston Center
Wed 11:27:50 PM 42.5769 -73.6919 359° North 268 308 4,000 -750 Descending Boston Center
Wed 11:28:50 PM 42.6583 -73.6881 North 268 308 4,000 -250 Level Boston Center
Wed 11:29:50 PM 42.7250 -73.6864 North 248 285 3,500 -750 Descending Boston Center
Wed 11:30:50 PM 42.7875 -73.6850 North 229 264 2,500 -750 Descending Boston Center
Wed 11:31:50 PM 42.8225 -73.7194 324° Northwest 169 194 2,000 -500 Descending Boston Center

Login

Don't have an account? Register now (free) for customized features, flight alerts, and more!